createdAt,value
2022-08-17T00:00:34.336Z,2.47
2022-08-17T00:03:18.333Z,2.72
2022-08-17T00:06:07.599Z,2.70
2022-08-17T00:08:57.823Z,2.70
2022-08-17T00:11:28.831Z,2.80
2022-08-17T00:14:05.519Z,3.10
2022-08-17T00:16:50.426Z,2.80
2022-08-17T00:19:25.744Z,2.92
2022-08-17T00:22:31.395Z,3.00
2022-08-17T00:24:44.905Z,2.80
2022-08-17T00:27:11.909Z,2.55
2022-08-17T00:29:38.995Z,3.10
2022-08-17T00:33:14.906Z,2.70
2022-08-17T00:34:54.032Z,3.08
2022-08-17T00:37:23.683Z,3.28
2022-08-17T00:39:53.611Z,2.70
2022-08-17T00:42:20.680Z,3.05
2022-08-17T00:44:47.908Z,3.38
2022-08-17T00:47:15.084Z,2.92
2022-08-17T00:49:42.308Z,2.95
2022-08-17T00:52:21.718Z,2.67
2022-08-17T00:54:54.879Z,2.70
2022-08-17T00:57:32.902Z,2.58
2022-08-17T01:00:39.411Z,2.97
2022-08-17T01:05:42.233Z,3.13
2022-08-17T01:08:15.017Z,3.40
2022-08-17T01:10:58.587Z,3.20
2022-08-17T01:13:41.006Z,2.97
2022-08-17T01:16:32.564Z,3.20
2022-08-17T01:19:12.317Z,2.83
2022-08-17T01:21:55.132Z,2.88
2022-08-17T01:24:22.497Z,2.50
2022-08-17T01:26:49.913Z,2.67
2022-08-17T01:29:18.732Z,2.72
2022-08-17T01:31:56.684Z,2.90
2022-08-17T01:34:24.996Z,2.92
2022-08-17T01:37:05.148Z,3.22
2022-08-17T01:39:41.182Z,3.15
2022-08-17T01:42:34.576Z,3.10
2022-08-17T01:45:11.062Z,3.20
2022-08-17T01:47:38.527Z,3.30
2022-08-17T01:50:10.612Z,3.20
2022-08-17T01:52:42.451Z,3.35
2022-08-17T01:55:10.475Z,3.30
2022-08-17T01:57:37.895Z,3.28
2022-08-17T02:00:10.433Z,3.20
2022-08-17T02:02:38.265Z,3.10
2022-08-17T02:05:07.596Z,3.25
2022-08-17T02:07:59.785Z,3.20
2022-08-17T02:10:24.143Z,3.55
2022-08-17T02:13:03.357Z,3.50
2022-08-17T02:15:30.823Z,3.38
2022-08-17T02:17:57.917Z,3.15
2022-08-17T02:20:41.585Z,3.42
2022-08-17T02:23:12.585Z,3.30
2022-08-17T02:25:43.412Z,3.40
2022-08-17T02:28:10.902Z,2.92
2022-08-17T02:30:59.028Z,3.45
2022-08-17T02:33:43.037Z,2.97
2022-08-17T02:36:12.769Z,3.67
2022-08-17T02:38:44.090Z,3.30
2022-08-17T02:41:12.686Z,3.28
2022-08-17T02:43:40.020Z,3.20
2022-08-17T02:46:07.183Z,3.38
2022-08-17T02:48:34.284Z,3.22
2022-08-17T02:51:02.845Z,3.65
2022-08-17T02:53:35.676Z,3.28
2022-08-17T02:56:06.254Z,3.28
2022-08-17T02:58:34.991Z,3.80
2022-08-17T03:01:08.874Z,3.45
2022-08-17T03:03:38.446Z,3.47
2022-08-17T03:06:07.726Z,3.38
2022-08-17T03:08:35.554Z,3.30
2022-08-17T03:11:02.685Z,3.65
2022-08-17T03:13:30.848Z,3.28
2022-08-17T03:15:58.735Z,3.53
2022-08-17T03:18:27.991Z,3.80
2022-08-17T03:20:59.995Z,3.88
2022-08-17T03:23:29.663Z,3.45
2022-08-17T03:25:58.683Z,3.83
2022-08-17T03:28:26.202Z,3.63
2022-08-17T03:30:53.898Z,3.65
2022-08-17T03:33:21.580Z,3.50
2022-08-17T03:35:48.908Z,3.30
2022-08-17T03:38:17.218Z,3.63
2022-08-17T03:40:56.729Z,3.50
2022-08-17T03:43:31.589Z,4.00
2022-08-17T03:46:34.683Z,3.22
2022-08-17T03:49:26.629Z,3.50
2022-08-17T03:52:14.012Z,3.50
2022-08-17T03:55:00.817Z,3.72
2022-08-17T03:57:29.157Z,3.50
2022-08-17T03:59:57.497Z,4.35
2022-08-17T04:02:33.558Z,3.35
2022-08-17T04:05:01.128Z,4.22
2022-08-17T04:07:30.515Z,4.38
2022-08-17T04:09:58.272Z,4.65
2022-08-17T04:12:30.806Z,4.63
2022-08-17T04:14:58.705Z,4.45
2022-08-17T04:17:29.827Z,5.82
2022-08-17T04:19:58.097Z,5.25
2022-08-17T04:22:31.262Z,4.82
2022-08-17T04:25:09.934Z,4.20
2022-08-17T04:27:37.227Z,4.53
2022-08-17T04:30:07.326Z,4.47
2022-08-17T04:33:08.782Z,4.25
2022-08-17T04:35:46.022Z,3.75
2022-08-17T04:38:20.680Z,3.75
2022-08-17T04:41:10.801Z,3.60
2022-08-17T04:43:41.141Z,3.53
2022-08-17T04:46:15.215Z,3.85
2022-08-17T04:48:48.215Z,4.93
2022-08-17T04:51:28.062Z,3.97
2022-08-17T04:54:05.991Z,3.92
2022-08-17T04:56:34.379Z,4.00
2022-08-17T04:59:13.139Z,4.30
2022-08-17T05:01:42.371Z,3.78
2022-08-17T05:04:33.166Z,4.25
2022-08-17T05:07:04.683Z,3.92
2022-08-17T05:09:32.231Z,4.45
2022-08-17T05:12:03.080Z,4.28
2022-08-17T05:14:33.414Z,4.13
2022-08-17T05:17:01.923Z,4.10
2022-08-17T05:22:07.499Z,3.80
2022-08-17T05:24:40.688Z,4.53
2022-08-17T05:27:18.805Z,4.40
2022-08-17T05:29:46.479Z,4.30
2022-08-17T05:32:39.406Z,3.75
2022-08-17T05:35:02.411Z,4.20
2022-08-17T05:37:29.583Z,4.30
2022-08-17T05:39:56.730Z,3.90
2022-08-17T05:42:24.197Z,3.28
2022-08-17T05:44:51.336Z,3.83
2022-08-17T05:47:18.739Z,3.58
2022-08-17T05:49:49.119Z,3.83
2022-08-17T05:52:46.805Z,3.20
2022-08-17T05:55:27.716Z,3.30
2022-08-17T05:58:20.272Z,3.17
2022-08-17T06:01:04.576Z,3.47
2022-08-17T06:03:59.962Z,4.10
2022-08-17T06:06:46.689Z,3.15
2022-08-17T06:09:33.849Z,3.20
2022-08-17T06:12:37.421Z,3.40
2022-08-17T06:15:47.587Z,3.55
2022-08-17T06:18:20.084Z,2.92
2022-08-17T06:21:07.165Z,3.22
2022-08-17T06:23:48.338Z,3.13
2022-08-17T06:26:21.456Z,3.50
2022-08-17T06:29:08.901Z,3.30
2022-08-17T06:31:46.254Z,3.25
2022-08-17T06:34:15.058Z,3.28
2022-08-17T06:37:04.075Z,3.40
2022-08-17T06:39:41.306Z,3.03
2022-08-17T06:42:09.578Z,3.22
2022-08-17T06:45:22.494Z,3.42
2022-08-17T06:48:32.776Z,2.42
2022-08-17T06:51:18.404Z,2.90
2022-08-17T06:54:05.597Z,3.53
2022-08-17T06:56:54.338Z,3.03
2022-08-17T06:59:54.378Z,3.17
2022-08-17T07:02:51.982Z,2.83
2022-08-17T07:05:34.757Z,2.70
2022-08-17T07:08:14.846Z,2.90
2022-08-17T07:10:54.833Z,3.03
2022-08-17T07:13:31.121Z,3.05
2022-08-17T07:16:25.861Z,3.08
2022-08-17T07:18:56.273Z,3.00
2022-08-17T07:21:51.680Z,2.92
2022-08-17T07:24:59.731Z,2.90
2022-08-17T07:27:38.270Z,2.80
2022-08-17T07:30:21.273Z,2.65
2022-08-17T07:33:23.716Z,3.17
2022-08-17T07:35:50.990Z,2.67
2022-08-17T07:38:25.240Z,3.10
2022-08-17T07:41:03.130Z,2.85
2022-08-17T07:43:39.638Z,2.70
2022-08-17T07:46:25.218Z,3.00
2022-08-17T07:49:12.565Z,3.13
2022-08-17T07:51:48.201Z,2.90
2022-08-17T07:54:27.823Z,2.55
2022-08-17T07:57:29.395Z,3.10
2022-08-17T07:59:59.920Z,2.78
2022-08-17T08:02:38.676Z,3.60
2022-08-17T08:05:29.874Z,3.13
2022-08-17T08:08:50.465Z,3.47
2022-08-17T08:11:40.191Z,3.33
2022-08-17T08:14:29.626Z,3.10
2022-08-17T08:17:06.529Z,3.28
2022-08-17T08:19:39.287Z,3.35
2022-08-17T08:22:19.409Z,3.08
2022-08-17T08:25:22.245Z,3.00
2022-08-17T08:28:07.953Z,3.63
2022-08-17T08:33:25.385Z,3.22
2022-08-17T08:36:05.429Z,3.55
2022-08-17T08:39:05.322Z,3.30
2022-08-17T08:41:47.975Z,3.60
2022-08-17T08:45:10.326Z,3.45
2022-08-17T08:48:56.955Z,4.05
2022-08-17T08:51:21.512Z,3.75
2022-08-17T08:53:51.986Z,3.30
2022-08-17T08:56:58.942Z,4.15
2022-08-17T08:59:44.319Z,4.03
2022-08-17T09:02:45.610Z,3.53
2022-08-17T09:05:43.937Z,3.38
2022-08-17T09:08:25.410Z,3.88
2022-08-17T09:12:02.498Z,3.75
2022-08-17T09:14:47.003Z,3.97
2022-08-17T09:17:36.513Z,3.88
2022-08-17T09:20:28.142Z,3.92
2022-08-17T09:23:12.511Z,3.83
2022-08-17T09:26:41.286Z,3.85
2022-08-17T09:29:17.492Z,3.17
2022-08-17T09:31:58.601Z,3.70
2022-08-17T09:34:49.547Z,2.70
2022-08-17T09:37:34.189Z,3.08
2022-08-17T09:40:18.429Z,3.42
2022-08-17T09:43:04.162Z,3.22
2022-08-17T09:48:47.402Z,3.17
2022-08-17T09:51:26.645Z,3.30
2022-08-17T09:53:54.310Z,3.40
2022-08-17T09:57:32.510Z,3.08
2022-08-17T10:00:10.435Z,3.05
2022-08-17T10:03:02.610Z,3.30
2022-08-17T10:05:46.698Z,2.83
2022-08-17T10:08:52.428Z,2.60
2022-08-17T10:11:48.446Z,2.55
2022-08-17T10:14:46.492Z,2.35
2022-08-17T10:17:23.217Z,2.70
2022-08-17T10:20:09.783Z,2.75
2022-08-17T10:23:07.209Z,2.75
2022-08-17T10:26:00.673Z,2.75
2022-08-17T10:28:48.907Z,2.35
2022-08-17T10:31:41.658Z,2.50
2022-08-17T10:34:44.717Z,2.63
2022-08-17T10:38:01.757Z,2.20
2022-08-17T10:40:36.501Z,2.60
2022-08-17T10:43:34.586Z,2.38
2022-08-17T10:46:54.288Z,2.45
2022-08-17T10:49:32.684Z,2.33
2022-08-17T10:52:26.278Z,2.00
2022-08-17T10:54:57.896Z,2.17
2022-08-17T10:57:34.510Z,2.42
2022-08-17T11:00:14.866Z,1.88
2022-08-17T11:02:52.652Z,2.17
2022-08-17T11:05:52.332Z,2.30
2022-08-17T11:09:05.306Z,1.95
2022-08-17T11:11:45.469Z,2.03
2022-08-17T11:14:41.293Z,2.08
2022-08-17T11:17:50.847Z,2.13
2022-08-17T11:20:41.348Z,2.20
2022-08-17T11:23:17.236Z,2.08
2022-08-17T11:26:08.196Z,2.00
2022-08-17T11:28:50.349Z,2.25
2022-08-17T11:31:43.471Z,1.95
2022-08-17T11:34:29.999Z,2.08
2022-08-17T11:37:03.448Z,1.63
2022-08-17T11:39:50.671Z,2.28
2022-08-17T11:42:48.418Z,2.15
2022-08-17T11:45:46.942Z,2.33
2022-08-17T11:49:08.695Z,2.03
2022-08-17T11:52:05.039Z,1.90
2022-08-17T11:54:49.085Z,2.00
2022-08-17T11:57:31.127Z,2.08
2022-08-17T12:00:12.155Z,2.05
2022-08-17T12:02:48.419Z,1.92
2022-08-17T12:05:19.032Z,1.95
2022-08-17T12:08:05.481Z,2.03
2022-08-17T12:10:58.259Z,2.40
2022-08-17T12:13:38.620Z,2.22
2022-08-17T12:16:10.019Z,1.65
2022-08-17T12:18:39.754Z,2.28
2022-08-17T12:21:23.188Z,2.40
2022-08-17T12:24:05.384Z,1.80
2022-08-17T12:26:36.855Z,2.38
2022-08-17T12:29:18.301Z,2.50
2022-08-17T12:32:06.928Z,1.83
2022-08-17T12:34:43.351Z,2.83
2022-08-17T12:37:21.400Z,2.03
2022-08-17T12:39:57.478Z,2.42
2022-08-17T12:42:37.489Z,2.15
2022-08-17T12:45:33.687Z,2.20
2022-08-17T12:48:11.040Z,2.05
2022-08-17T12:50:44.910Z,2.30
2022-08-17T12:53:24.916Z,2.53
2022-08-17T12:55:53.865Z,2.53
2022-08-17T12:58:31.521Z,2.05
2022-08-17T13:01:13.987Z,2.95
2022-08-17T13:03:49.971Z,1.70
2022-08-17T13:06:36.553Z,2.10
2022-08-17T13:09:20.105Z,2.13
2022-08-17T13:11:55.316Z,2.13
2022-08-17T13:14:22.677Z,2.15
2022-08-17T13:17:01.620Z,2.47
2022-08-17T13:19:40.859Z,2.03
2022-08-17T13:22:12.881Z,2.25
2022-08-17T13:24:55.641Z,2.30
2022-08-17T13:27:26.595Z,2.25
2022-08-17T13:30:05.208Z,2.00
2022-08-17T13:32:45.073Z,2.33
2022-08-17T13:35:40.041Z,1.88
2022-08-17T13:38:51.189Z,2.07
2022-08-17T13:41:37.129Z,1.80
2022-08-17T13:44:29.630Z,2.00
2022-08-17T13:46:57.481Z,2.05
2022-08-17T13:49:24.783Z,1.70
2022-08-17T13:52:43.109Z,2.08
2022-08-17T13:55:21.993Z,2.17
2022-08-17T13:58:04.147Z,2.10
2022-08-17T14:00:37.632Z,1.88
2022-08-17T14:03:08.013Z,1.85
2022-08-17T14:05:41.810Z,2.00
2022-08-17T14:08:13.522Z,2.90
2022-08-17T14:10:45.166Z,2.30
2022-08-17T14:13:15.224Z,2.08
2022-08-17T14:15:56.041Z,1.90
2022-08-17T14:18:50.622Z,1.92
2022-08-17T14:21:14.771Z,1.85
2022-08-17T14:23:54.526Z,1.90
2022-08-17T14:26:23.294Z,2.03
2022-08-17T14:28:56.733Z,1.90
2022-08-17T14:31:25.063Z,2.30
2022-08-17T14:33:52.610Z,2.13
2022-08-17T14:36:19.868Z,1.90
2022-08-17T14:38:50.584Z,2.30
2022-08-17T14:41:23.483Z,2.22
2022-08-17T14:43:53.511Z,2.25
2022-08-17T14:46:20.711Z,2.10
2022-08-17T14:48:52.727Z,2.80
2022-08-17T14:51:28.595Z,2.03
2022-08-17T14:53:57.224Z,2.03
2022-08-17T14:56:26.156Z,1.83
2022-08-17T14:58:53.323Z,2.22
2022-08-17T15:01:22.137Z,2.30
2022-08-17T15:03:54.053Z,2.30
2022-08-17T15:06:24.305Z,1.88
2022-08-17T15:08:53.646Z,2.55
2022-08-17T15:11:20.850Z,2.10
2022-08-17T15:13:52.299Z,2.97
2022-08-17T15:16:20.579Z,2.38
2022-08-17T15:18:48.438Z,1.80
2022-08-17T15:21:15.923Z,1.77
2022-08-17T15:23:43.162Z,2.15
2022-08-17T15:26:11.422Z,2.08
2022-08-17T15:28:38.563Z,1.75
2022-08-17T15:31:06.728Z,1.90
2022-08-17T15:33:36.748Z,2.10
2022-08-17T15:36:07.790Z,1.95
2022-08-17T15:38:39.397Z,1.98
2022-08-17T15:41:17.955Z,1.90
2022-08-17T15:43:49.936Z,1.90
2022-08-17T15:46:24.180Z,2.08
2022-08-17T15:48:59.694Z,2.05
2022-08-17T15:51:29.635Z,1.88
2022-08-17T15:54:19.072Z,1.88
2022-08-17T15:56:49.995Z,2.03
2022-08-17T15:59:17.127Z,2.38
2022-08-17T16:03:01.812Z,1.95
2022-08-17T16:04:31.654Z,2.28
2022-08-17T16:07:02.145Z,3.35
2022-08-17T16:09:29.245Z,2.80
2022-08-17T16:11:56.790Z,2.65
2022-08-17T16:14:30.221Z,2.60
2022-08-17T16:17:00.736Z,6.32
2022-08-17T16:19:27.890Z,3.10
2022-08-17T16:21:54.932Z,3.28
2022-08-17T16:24:22.082Z,2.53
2022-08-17T16:26:49.155Z,3.47
2022-08-17T16:29:16.582Z,2.60
2022-08-17T16:31:43.809Z,2.95
2022-08-17T16:34:17.284Z,2.50
2022-08-17T16:36:54.955Z,2.10
2022-08-17T16:39:29.213Z,2.53
2022-08-17T16:41:57.488Z,2.40
2022-08-17T16:44:27.531Z,1.77
2022-08-17T16:46:54.644Z,2.35
2022-08-17T16:49:36.058Z,2.15
2022-08-17T16:52:10.077Z,1.90
2022-08-17T16:54:43.632Z,2.05
2022-08-17T16:57:12.975Z,2.50
2022-08-17T16:59:48.024Z,2.28
2022-08-17T17:02:37.072Z,2.20
2022-08-17T17:05:28.680Z,1.75
2022-08-17T17:08:09.624Z,2.03
2022-08-17T17:10:50.073Z,1.95
2022-08-17T17:13:49.755Z,1.95
2022-08-17T17:16:28.598Z,2.22
2022-08-17T17:19:17.955Z,3.20
2022-08-17T17:25:16.329Z,2.83
2022-08-17T17:27:58.938Z,2.75
2022-08-17T17:30:48.257Z,3.10
2022-08-17T17:33:24.777Z,2.33
2022-08-17T17:36:06.993Z,3.05
2022-08-17T17:38:52.831Z,3.30
2022-08-17T17:41:43.506Z,3.20
2022-08-17T17:44:20.025Z,2.83
2022-08-17T17:46:56.908Z,2.90
2022-08-17T17:49:46.101Z,3.45
2022-08-17T17:52:47.535Z,3.38
2022-08-17T17:55:25.206Z,3.28
2022-08-17T17:58:38.275Z,3.30
2022-08-17T18:01:42.722Z,2.83
2022-08-17T18:04:28.623Z,3.13
2022-08-17T18:07:19.623Z,2.65
2022-08-17T18:10:29.697Z,2.45
2022-08-17T18:13:29.126Z,2.50
2022-08-17T18:16:00.710Z,2.53
2022-08-17T18:18:46.074Z,3.08
2022-08-17T18:21:21.908Z,3.30
2022-08-17T18:23:53.832Z,2.70
2022-08-17T18:26:36.653Z,2.85
2022-08-17T18:29:25.959Z,2.90
2022-08-17T18:32:34.071Z,2.92
2022-08-17T18:35:10.095Z,2.45
2022-08-17T18:37:45.971Z,3.00
2022-08-17T18:40:21.467Z,2.65
2022-08-17T18:43:00.479Z,3.10
2022-08-17T18:45:44.704Z,3.20
2022-08-17T18:48:23.327Z,3.00
2022-08-17T18:51:20.804Z,3.33
2022-08-17T18:54:25.384Z,3.25
2022-08-17T18:57:00.468Z,2.47
2022-08-17T18:59:48.288Z,2.78
2022-08-17T19:02:44.163Z,3.00
2022-08-17T19:05:42.184Z,3.65
2022-08-17T19:08:18.507Z,2.80
2022-08-17T19:11:03.645Z,3.00
2022-08-17T19:13:47.588Z,3.17
2022-08-17T19:16:32.372Z,2.78
2022-08-17T19:19:20.060Z,3.05
2022-08-17T19:21:57.221Z,3.00
2022-08-17T19:24:27.671Z,3.80
2022-08-17T19:27:19.198Z,3.65
2022-08-17T19:30:07.815Z,4.10
2022-08-17T19:32:38.284Z,3.80
2022-08-17T19:35:15.151Z,4.20
2022-08-17T19:37:56.659Z,4.60
2022-08-17T19:41:11.680Z,4.30
2022-08-17T19:43:56.687Z,4.43
2022-08-17T19:46:50.701Z,4.13
2022-08-17T19:49:53.016Z,4.13
2022-08-17T19:52:51.085Z,4.60
2022-08-17T19:55:26.709Z,3.80
2022-08-17T19:58:51.623Z,4.63
2022-08-17T20:01:41.227Z,4.40
2022-08-17T20:04:31.830Z,3.97
2022-08-17T20:08:02.463Z,3.80
2022-08-17T20:11:12.693Z,3.92
2022-08-17T20:13:52.239Z,3.53
2022-08-17T20:16:20.234Z,4.10
2022-08-17T20:19:01.428Z,4.25
2022-08-17T20:21:34.150Z,4.18
2022-08-17T20:24:21.900Z,4.00
2022-08-17T20:26:59.669Z,3.80
2022-08-17T20:29:54.829Z,4.18
2022-08-17T20:32:36.679Z,4.43
2022-08-17T20:35:38.757Z,4.30
2022-08-17T20:38:13.255Z,4.55
2022-08-17T20:41:03.958Z,3.78
2022-08-17T20:43:34.267Z,3.95
2022-08-17T20:46:38.347Z,4.18
2022-08-17T20:49:13.376Z,4.03
2022-08-17T20:52:02.363Z,4.10
2022-08-17T20:54:58.613Z,3.97
2022-08-17T20:57:31.990Z,4.03
2022-08-17T21:00:40.606Z,4.47
2022-08-17T21:03:22.727Z,4.40
2022-08-17T21:06:25.307Z,4.07
2022-08-17T21:09:16.269Z,4.07
2022-08-17T21:12:04.527Z,4.32
2022-08-17T21:14:58.137Z,3.55
2022-08-17T21:17:47.059Z,4.25
2022-08-17T21:20:34.707Z,5.03
2022-08-17T21:23:30.366Z,4.57
2022-08-17T21:26:21.153Z,4.18
2022-08-17T21:29:29.935Z,5.05
2022-08-17T21:32:05.494Z,4.00
2022-08-17T21:34:39.224Z,4.93
2022-08-17T21:37:24.523Z,5.20
2022-08-17T21:39:58.100Z,4.68
2022-08-17T21:42:33.347Z,4.78
2022-08-17T21:45:26.002Z,5.70
2022-08-17T21:48:24.070Z,5.05
2022-08-17T21:51:19.558Z,4.45
2022-08-17T21:54:14.770Z,5.53
2022-08-17T21:56:47.276Z,4.70
2022-08-17T21:59:39.321Z,4.82
2022-08-17T22:02:22.080Z,4.63
2022-08-17T22:05:12.594Z,5.28
2022-08-17T22:07:47.749Z,4.95
2022-08-17T22:10:42.040Z,5.95
2022-08-17T22:13:19.849Z,4.50
2022-08-17T22:16:27.715Z,5.13
2022-08-17T22:18:58.927Z,4.68
2022-08-17T22:21:26.764Z,5.13
2022-08-17T22:24:21.379Z,4.88
2022-08-17T22:27:11.587Z,4.80
2022-08-17T22:29:57.117Z,4.45
2022-08-17T22:32:55.446Z,4.47
2022-08-17T22:35:42.653Z,4.45
2022-08-17T22:38:18.892Z,4.90
2022-08-17T22:40:52.552Z,5.05
2022-08-17T22:43:28.697Z,4.93
2022-08-17T22:46:00.104Z,6.28
2022-08-17T22:48:29.506Z,5.07
2022-08-17T22:51:14.536Z,5.20
2022-08-17T22:54:14.410Z,4.55
2022-08-17T22:57:18.724Z,3.70
2022-08-17T22:59:50.820Z,4.28
2022-08-17T23:02:32.357Z,4.93
2022-08-17T23:05:14.317Z,5.53
2022-08-17T23:07:47.142Z,4.80
2022-08-17T23:10:15.346Z,4.35
2022-08-17T23:12:42.814Z,4.57
2022-08-17T23:15:15.595Z,4.60
2022-08-17T23:17:45.364Z,4.22
2022-08-17T23:20:16.292Z,4.70
2022-08-17T23:22:51.973Z,5.10
2022-08-17T23:25:28.948Z,4.10
2022-08-17T23:28:01.613Z,4.88
2022-08-17T23:30:31.668Z,4.28
2022-08-17T23:33:07.218Z,4.22
2022-08-17T23:35:40.635Z,4.53
2022-08-17T23:38:13.338Z,4.72
2022-08-17T23:40:41.402Z,3.80
2022-08-17T23:43:25.402Z,4.30
2022-08-17T23:46:03.559Z,4.03
2022-08-17T23:48:36.628Z,4.43
2022-08-17T23:51:12.209Z,4.25
2022-08-17T23:53:47.314Z,4.85
2022-08-17T23:56:15.847Z,4.35
2022-08-17T23:58:44.906Z,4.60
